sensor_id;sensor_type;location;lat;lon;timestamp;P1;durP1;ratioP1;P2;durP2;ratioP2
53781;SDS011;39692;53.114;7.060;2022-12-18T00:02:20;52.00;;;19.02;;
53781;SDS011;39692;53.114;7.060;2022-12-18T00:04:47;41.20;;;15.27;;
53781;SDS011;39692;53.114;7.060;2022-12-18T00:07:13;46.90;;;18.88;;
53781;SDS011;39692;53.114;7.060;2022-12-18T00:09:39;39.58;;;15.43;;
53781;SDS011;39692;53.114;7.060;2022-12-18T00:12:05;49.30;;;17.73;;
53781;SDS011;39692;53.114;7.060;2022-12-18T00:14:31;43.10;;;20.92;;
53781;SDS011;39692;53.114;7.060;2022-12-18T00:16:57;31.15;;;16.45;;
53781;SDS011;39692;53.114;7.060;2022-12-18T00:19:25;43.67;;;17.38;;
53781;SDS011;39692;53.114;7.060;2022-12-18T00:21:51;49.28;;;20.83;;
53781;SDS011;39692;53.114;7.060;2022-12-18T00:24:17;42.58;;;15.88;;
53781;SDS011;39692;53.114;7.060;2022-12-18T00:26:43;29.48;;;14.13;;
53781;SDS011;39692;53.114;7.060;2022-12-18T00:29:11;52.10;;;17.40;;
53781;SDS011;39692;53.114;7.060;2022-12-18T00:31:38;39.30;;;17.63;;
53781;SDS011;39692;53.114;7.060;2022-12-18T00:34:05;30.40;;;12.80;;
53781;SDS011;39692;53.114;7.060;2022-12-18T00:36:32;38.78;;;14.60;;
53781;SDS011;39692;53.114;7.060;2022-12-18T00:38:59;38.80;;;11.57;;
53781;SDS011;39692;53.114;7.060;2022-12-18T00:41:25;40.65;;;16.65;;
53781;SDS011;39692;53.114;7.060;2022-12-18T00:44:11;26.67;;;10.73;;
53781;SDS011;39692;53.114;7.060;2022-12-18T00:46:38;40.40;;;15.48;;
53781;SDS011;39692;53.114;7.060;2022-12-18T00:49:04;52.75;;;18.05;;
53781;SDS011;39692;53.114;7.060;2022-12-18T00:51:30;32.92;;;14.98;;
53781;SDS011;39692;53.114;7.060;2022-12-18T00:53:56;35.53;;;14.38;;
53781;SDS011;39692;53.114;7.060;2022-12-18T00:56:22;40.55;;;16.70;;
53781;SDS011;39692;53.114;7.060;2022-12-18T00:58:49;42.03;;;16.77;;
53781;SDS011;39692;53.114;7.060;2022-12-18T01:01:15;42.50;;;17.02;;
53781;SDS011;39692;53.114;7.060;2022-12-18T01:03:41;51.22;;;17.15;;
53781;SDS011;39692;53.114;7.060;2022-12-18T01:06:08;35.58;;;14.05;;
53781;SDS011;39692;53.114;7.060;2022-12-18T01:08:34;50.40;;;18.38;;
53781;SDS011;39692;53.114;7.060;2022-12-18T01:11:01;39.95;;;17.83;;
53781;SDS011;39692;53.114;7.060;2022-12-18T01:13:27;29.92;;;13.60;;
53781;SDS011;39692;53.114;7.060;2022-12-18T01:15:53;45.60;;;17.15;;
53781;SDS011;39692;53.114;7.060;2022-12-18T01:18:19;46.60;;;17.77;;
53781;SDS011;39692;53.114;7.060;2022-12-18T01:20:45;44.40;;;17.48;;
53781;SDS011;39692;53.114;7.060;2022-12-18T01:23:11;36.13;;;13.30;;
53781;SDS011;39692;53.114;7.060;2022-12-18T01:25:37;39.60;;;15.57;;
53781;SDS011;39692;53.114;7.060;2022-12-18T01:28:04;52.80;;;18.50;;
53781;SDS011;39692;53.114;7.060;2022-12-18T01:30:30;39.30;;;13.43;;
53781;SDS011;39692;53.114;7.060;2022-12-18T01:32:56;33.42;;;19.50;;
53781;SDS011;39692;53.114;7.060;2022-12-18T01:35:22;46.67;;;18.58;;
53781;SDS011;39692;53.114;7.060;2022-12-18T01:37:48;42.60;;;17.20;;
53781;SDS011;39692;53.114;7.060;2022-12-18T01:40:14;39.25;;;16.95;;
53781;SDS011;39692;53.114;7.060;2022-12-18T01:42:40;40.33;;;14.82;;
53781;SDS011;39692;53.114;7.060;2022-12-18T01:45:28;35.88;;;16.75;;
53781;SDS011;39692;53.114;7.060;2022-12-18T01:47:54;39.10;;;15.73;;
53781;SDS011;39692;53.114;7.060;2022-12-18T01:50:22;38.20;;;14.25;;
53781;SDS011;39692;53.114;7.060;2022-12-18T01:52:53;30.80;;;13.30;;
53781;SDS011;39692;53.114;7.060;2022-12-18T01:55:20;39.78;;;19.90;;
53781;SDS011;39692;53.114;7.060;2022-12-18T01:57:47;36.78;;;19.60;;
53781;SDS011;39692;53.114;7.060;2022-12-18T02:00:15;36.90;;;18.20;;
53781;SDS011;39692;53.114;7.060;2022-12-18T02:02:42;38.63;;;16.88;;
53781;SDS011;39692;53.114;7.060;2022-12-18T02:05:09;29.98;;;14.57;;
53781;SDS011;39692;53.114;7.060;2022-12-18T02:07:52;35.95;;;15.27;;
53781;SDS011;39692;53.114;7.060;2022-12-18T02:13:13;29.15;;;15.02;;
53781;SDS011;39692;53.114;7.060;2022-12-18T02:16:03;41.33;;;15.52;;
53781;SDS011;39692;53.114;7.060;2022-12-18T02:18:31;47.55;;;18.02;;
53781;SDS011;39692;53.114;7.060;2022-12-18T02:21:23;40.53;;;18.48;;
53781;SDS011;39692;53.114;7.060;2022-12-18T02:23:47;39.80;;;14.82;;
53781;SDS011;39692;53.114;7.060;2022-12-18T02:28:51;38.35;;;16.02;;
53781;SDS011;39692;53.114;7.060;2022-12-18T02:31:20;48.67;;;16.73;;
53781;SDS011;39692;53.114;7.060;2022-12-18T02:33:47;42.22;;;16.40;;
53781;SDS011;39692;53.114;7.060;2022-12-18T02:36:14;39.40;;;16.45;;
53781;SDS011;39692;53.114;7.060;2022-12-18T02:38:42;34.83;;;16.55;;
53781;SDS011;39692;53.114;7.060;2022-12-18T02:41:09;34.13;;;15.48;;
53781;SDS011;39692;53.114;7.060;2022-12-18T02:43:35;31.63;;;14.40;;
53781;SDS011;39692;53.114;7.060;2022-12-18T02:46:20;44.22;;;18.00;;
53781;SDS011;39692;53.114;7.060;2022-12-18T02:48:47;43.30;;;16.40;;
53781;SDS011;39692;53.114;7.060;2022-12-18T02:51:22;35.13;;;16.33;;
53781;SDS011;39692;53.114;7.060;2022-12-18T02:53:51;47.65;;;17.70;;
53781;SDS011;39692;53.114;7.060;2022-12-18T02:56:24;48.75;;;19.70;;
53781;SDS011;39692;53.114;7.060;2022-12-18T02:58:59;35.78;;;14.20;;
53781;SDS011;39692;53.114;7.060;2022-12-18T03:01:42;31.95;;;16.42;;
53781;SDS011;39692;53.114;7.060;2022-12-18T03:04:10;46.55;;;19.08;;
53781;SDS011;39692;53.114;7.060;2022-12-18T03:06:46;34.38;;;13.55;;
53781;SDS011;39692;53.114;7.060;2022-12-18T03:09:14;32.60;;;13.82;;
53781;SDS011;39692;53.114;7.060;2022-12-18T03:11:43;29.17;;;15.07;;
53781;SDS011;39692;53.114;7.060;2022-12-18T03:14:31;35.70;;;17.42;;
53781;SDS011;39692;53.114;7.060;2022-12-18T03:16:58;38.97;;;16.88;;
53781;SDS011;39692;53.114;7.060;2022-12-18T03:19:26;28.73;;;14.80;;
53781;SDS011;39692;53.114;7.060;2022-12-18T03:21:53;32.70;;;15.30;;
53781;SDS011;39692;53.114;7.060;2022-12-18T03:24:20;36.17;;;15.65;;
53781;SDS011;39692;53.114;7.060;2022-12-18T03:26:47;30.23;;;14.85;;
53781;SDS011;39692;53.114;7.060;2022-12-18T03:29:17;42.08;;;12.57;;
53781;SDS011;39692;53.114;7.060;2022-12-18T03:31:47;33.60;;;14.57;;
53781;SDS011;39692;53.114;7.060;2022-12-18T03:34:15;21.00;;;11.10;;
53781;SDS011;39692;53.114;7.060;2022-12-18T03:36:43;32.28;;;12.50;;
53781;SDS011;39692;53.114;7.060;2022-12-18T03:39:09;29.70;;;12.75;;
53781;SDS011;39692;53.114;7.060;2022-12-18T03:41:39;26.10;;;11.32;;
53781;SDS011;39692;53.114;7.060;2022-12-18T03:44:13;28.63;;;13.35;;
53781;SDS011;39692;53.114;7.060;2022-12-18T03:46:43;41.55;;;13.70;;
53781;SDS011;39692;53.114;7.060;2022-12-18T03:49:11;25.02;;;13.20;;
53781;SDS011;39692;53.114;7.060;2022-12-18T03:51:42;23.27;;;11.43;;
53781;SDS011;39692;53.114;7.060;2022-12-18T03:54:10;25.40;;;11.25;;
53781;SDS011;39692;53.114;7.060;2022-12-18T03:56:38;14.90;;;7.03;;
53781;SDS011;39692;53.114;7.060;2022-12-18T03:59:06;22.23;;;11.07;;
53781;SDS011;39692;53.114;7.060;2022-12-18T04:01:40;22.20;;;9.48;;
53781;SDS011;39692;53.114;7.060;2022-12-18T04:04:08;28.40;;;12.65;;
53781;SDS011;39692;53.114;7.060;2022-12-18T04:06:36;22.73;;;10.23;;
53781;SDS011;39692;53.114;7.060;2022-12-18T04:09:03;27.27;;;12.93;;
53781;SDS011;39692;53.114;7.060;2022-12-18T04:11:29;26.38;;;11.00;;
53781;SDS011;39692;53.114;7.060;2022-12-18T04:13:56;27.85;;;13.20;;
53781;SDS011;39692;53.114;7.060;2022-12-18T04:16:23;23.75;;;11.20;;
53781;SDS011;39692;53.114;7.060;2022-12-18T04:18:50;18.17;;;8.55;;
53781;SDS011;39692;53.114;7.060;2022-12-18T04:21:16;21.65;;;10.73;;
53781;SDS011;39692;53.114;7.060;2022-12-18T04:23:42;24.33;;;11.10;;
53781;SDS011;39692;53.114;7.060;2022-12-18T04:26:08;26.40;;;12.70;;
53781;SDS011;39692;53.114;7.060;2022-12-18T04:28:34;18.80;;;9.57;;
53781;SDS011;39692;53.114;7.060;2022-12-18T04:31:00;23.67;;;10.70;;
53781;SDS011;39692;53.114;7.060;2022-12-18T04:33:26;18.50;;;11.02;;
53781;SDS011;39692;53.114;7.060;2022-12-18T04:35:52;15.98;;;9.05;;
53781;SDS011;39692;53.114;7.060;2022-12-18T04:38:18;19.48;;;9.68;;
53781;SDS011;39692;53.114;7.060;2022-12-18T04:40:44;21.67;;;10.07;;
53781;SDS011;39692;53.114;7.060;2022-12-18T04:43:10;15.75;;;7.25;;
53781;SDS011;39692;53.114;7.060;2022-12-18T04:45:36;23.10;;;8.73;;
53781;SDS011;39692;53.114;7.060;2022-12-18T04:48:02;25.75;;;9.10;;
53781;SDS011;39692;53.114;7.060;2022-12-18T04:50:29;18.40;;;9.70;;
53781;SDS011;39692;53.114;7.060;2022-12-18T04:52:56;21.65;;;9.38;;
53781;SDS011;39692;53.114;7.060;2022-12-18T04:55:22;23.08;;;9.65;;
53781;SDS011;39692;53.114;7.060;2022-12-18T04:57:48;18.65;;;8.85;;
53781;SDS011;39692;53.114;7.060;2022-12-18T05:00:14;20.70;;;8.48;;
53781;SDS011;39692;53.114;7.060;2022-12-18T05:02:40;26.33;;;9.80;;
53781;SDS011;39692;53.114;7.060;2022-12-18T05:05:06;21.02;;;10.95;;
53781;SDS011;39692;53.114;7.060;2022-12-18T05:07:32;14.38;;;8.65;;
53781;SDS011;39692;53.114;7.060;2022-12-18T05:09:58;17.95;;;9.15;;
53781;SDS011;39692;53.114;7.060;2022-12-18T05:12:24;21.67;;;8.50;;
53781;SDS011;39692;53.114;7.060;2022-12-18T05:14:51;14.93;;;8.63;;
53781;SDS011;39692;53.114;7.060;2022-12-18T05:17:17;23.00;;;11.55;;
53781;SDS011;39692;53.114;7.060;2022-12-18T05:19:43;18.02;;;8.15;;
53781;SDS011;39692;53.114;7.060;2022-12-18T05:22:09;22.45;;;9.48;;
53781;SDS011;39692;53.114;7.060;2022-12-18T05:24:35;20.15;;;9.00;;
53781;SDS011;39692;53.114;7.060;2022-12-18T05:27:01;25.02;;;10.00;;
53781;SDS011;39692;53.114;7.060;2022-12-18T05:29:27;16.58;;;7.45;;
53781;SDS011;39692;53.114;7.060;2022-12-18T05:31:53;28.13;;;10.95;;
53781;SDS011;39692;53.114;7.060;2022-12-18T05:34:20;15.90;;;7.93;;
53781;SDS011;39692;53.114;7.060;2022-12-18T05:36:46;15.88;;;8.35;;
53781;SDS011;39692;53.114;7.060;2022-12-18T05:39:12;20.23;;;9.98;;
53781;SDS011;39692;53.114;7.060;2022-12-18T05:41:38;21.35;;;8.70;;
53781;SDS011;39692;53.114;7.060;2022-12-18T05:44:04;26.73;;;10.68;;
53781;SDS011;39692;53.114;7.060;2022-12-18T05:46:30;18.23;;;9.32;;
53781;SDS011;39692;53.114;7.060;2022-12-18T05:48:59;18.40;;;8.32;;
53781;SDS011;39692;53.114;7.060;2022-12-18T05:51:26;17.65;;;8.40;;
53781;SDS011;39692;53.114;7.060;2022-12-18T05:53:52;17.25;;;8.25;;
53781;SDS011;39692;53.114;7.060;2022-12-18T05:56:19;17.10;;;8.65;;
53781;SDS011;39692;53.114;7.060;2022-12-18T05:58:45;22.85;;;9.60;;
53781;SDS011;39692;53.114;7.060;2022-12-18T06:01:15;19.30;;;9.68;;
53781;SDS011;39692;53.114;7.060;2022-12-18T06:03:42;22.63;;;10.90;;
53781;SDS011;39692;53.114;7.060;2022-12-18T06:08:40;15.43;;;7.85;;
53781;SDS011;39692;53.114;7.060;2022-12-18T06:11:06;19.02;;;9.00;;
53781;SDS011;39692;53.114;7.060;2022-12-18T06:13:32;17.40;;;7.70;;
53781;SDS011;39692;53.114;7.060;2022-12-18T06:15:59;13.15;;;7.93;;
53781;SDS011;39692;53.114;7.060;2022-12-18T06:18:27;20.35;;;11.45;;
53781;SDS011;39692;53.114;7.060;2022-12-18T06:20:56;18.83;;;8.57;;
53781;SDS011;39692;53.114;7.060;2022-12-18T06:23:23;19.35;;;10.35;;
53781;SDS011;39692;53.114;7.060;2022-12-18T06:25:49;16.65;;;8.50;;
53781;SDS011;39692;53.114;7.060;2022-12-18T06:28:15;18.85;;;8.32;;
53781;SDS011;39692;53.114;7.060;2022-12-18T06:30:44;14.57;;;9.02;;
53781;SDS011;39692;53.114;7.060;2022-12-18T06:33:11;14.15;;;7.53;;
53781;SDS011;39692;53.114;7.060;2022-12-18T06:35:37;13.75;;;8.35;;
53781;SDS011;39692;53.114;7.060;2022-12-18T06:38:03;18.17;;;9.65;;
53781;SDS011;39692;53.114;7.060;2022-12-18T06:40:29;15.43;;;8.65;;
53781;SDS011;39692;53.114;7.060;2022-12-18T06:42:55;12.93;;;7.38;;
53781;SDS011;39692;53.114;7.060;2022-12-18T06:45:21;17.63;;;9.02;;
53781;SDS011;39692;53.114;7.060;2022-12-18T06:47:47;16.52;;;7.95;;
53781;SDS011;39692;53.114;7.060;2022-12-18T06:50:13;13.80;;;7.20;;
53781;SDS011;39692;53.114;7.060;2022-12-18T06:52:39;19.27;;;8.38;;
53781;SDS011;39692;53.114;7.060;2022-12-18T06:55:06;21.27;;;8.68;;
53781;SDS011;39692;53.114;7.060;2022-12-18T06:57:33;17.58;;;7.47;;
53781;SDS011;39692;53.114;7.060;2022-12-18T06:59:59;18.83;;;10.18;;
53781;SDS011;39692;53.114;7.060;2022-12-18T07:02:25;20.30;;;7.90;;
53781;SDS011;39692;53.114;7.060;2022-12-18T07:04:51;15.30;;;8.45;;
53781;SDS011;39692;53.114;7.060;2022-12-18T07:07:17;22.25;;;9.60;;
53781;SDS011;39692;53.114;7.060;2022-12-18T07:09:43;14.07;;;7.70;;
53781;SDS011;39692;53.114;7.060;2022-12-18T07:12:09;20.83;;;9.48;;
53781;SDS011;39692;53.114;7.060;2022-12-18T07:14:35;23.27;;;8.73;;
53781;SDS011;39692;53.114;7.060;2022-12-18T07:17:01;12.05;;;7.72;;
53781;SDS011;39692;53.114;7.060;2022-12-18T07:19:27;17.20;;;8.82;;
53781;SDS011;39692;53.114;7.060;2022-12-18T07:21:54;14.38;;;8.38;;
53781;SDS011;39692;53.114;7.060;2022-12-18T07:24:20;17.75;;;8.05;;
53781;SDS011;39692;53.114;7.060;2022-12-18T07:26:46;21.30;;;9.73;;
53781;SDS011;39692;53.114;7.060;2022-12-18T07:29:12;22.20;;;9.63;;
53781;SDS011;39692;53.114;7.060;2022-12-18T07:31:38;14.25;;;7.38;;
53781;SDS011;39692;53.114;7.060;2022-12-18T07:34:04;11.95;;;7.72;;
53781;SDS011;39692;53.114;7.060;2022-12-18T07:36:30;15.23;;;6.47;;
53781;SDS011;39692;53.114;7.060;2022-12-18T07:38:56;12.25;;;7.82;;
53781;SDS011;39692;53.114;7.060;2022-12-18T07:41:22;18.38;;;8.18;;
53781;SDS011;39692;53.114;7.060;2022-12-18T07:43:49;16.27;;;8.43;;
53781;SDS011;39692;53.114;7.060;2022-12-18T07:46:15;14.05;;;7.95;;
53781;SDS011;39692;53.114;7.060;2022-12-18T07:48:42;17.42;;;7.65;;
53781;SDS011;39692;53.114;7.060;2022-12-18T07:51:08;16.40;;;7.82;;
53781;SDS011;39692;53.114;7.060;2022-12-18T07:53:34;14.43;;;7.00;;
53781;SDS011;39692;53.114;7.060;2022-12-18T07:56:01;16.55;;;6.22;;
53781;SDS011;39692;53.114;7.060;2022-12-18T07:58:28;12.88;;;7.30;;
53781;SDS011;39692;53.114;7.060;2022-12-18T08:00:54;13.35;;;7.28;;
53781;SDS011;39692;53.114;7.060;2022-12-18T08:03:27;11.75;;;8.02;;
53781;SDS011;39692;53.114;7.060;2022-12-18T08:05:57;13.05;;;8.95;;
53781;SDS011;39692;53.114;7.060;2022-12-18T08:08:23;13.65;;;6.97;;
53781;SDS011;39692;53.114;7.060;2022-12-18T08:10:49;16.02;;;8.38;;
53781;SDS011;39692;53.114;7.060;2022-12-18T08:13:15;13.70;;;8.07;;
53781;SDS011;39692;53.114;7.060;2022-12-18T08:15:41;16.30;;;6.90;;
53781;SDS011;39692;53.114;7.060;2022-12-18T08:18:07;11.20;;;7.20;;
53781;SDS011;39692;53.114;7.060;2022-12-18T08:20:33;14.07;;;7.78;;
53781;SDS011;39692;53.114;7.060;2022-12-18T08:22:59;13.23;;;7.95;;
53781;SDS011;39692;53.114;7.060;2022-12-18T08:25:26;14.40;;;7.82;;
53781;SDS011;39692;53.114;7.060;2022-12-18T08:27:52;17.42;;;8.95;;
53781;SDS011;39692;53.114;7.060;2022-12-18T08:30:18;14.82;;;8.55;;
53781;SDS011;39692;53.114;7.060;2022-12-18T08:32:45;12.02;;;7.35;;
53781;SDS011;39692;53.114;7.060;2022-12-18T08:35:11;15.98;;;7.82;;
53781;SDS011;39692;53.114;7.060;2022-12-18T08:37:37;17.02;;;8.48;;
53781;SDS011;39692;53.114;7.060;2022-12-18T08:40:03;14.65;;;7.38;;
53781;SDS011;39692;53.114;7.060;2022-12-18T08:42:29;17.23;;;8.57;;
53781;SDS011;39692;53.114;7.060;2022-12-18T08:45:14;18.75;;;8.35;;
53781;SDS011;39692;53.114;7.060;2022-12-18T08:47:41;14.15;;;8.15;;
53781;SDS011;39692;53.114;7.060;2022-12-18T08:50:08;14.82;;;7.05;;
53781;SDS011;39692;53.114;7.060;2022-12-18T08:52:34;11.30;;;6.75;;
53781;SDS011;39692;53.114;7.060;2022-12-18T08:55:00;9.88;;;6.47;;
53781;SDS011;39692;53.114;7.060;2022-12-18T08:57:26;13.40;;;7.25;;
53781;SDS011;39692;53.114;7.060;2022-12-18T08:59:52;10.73;;;6.78;;
53781;SDS011;39692;53.114;7.060;2022-12-18T09:02:19;9.75;;;5.57;;
53781;SDS011;39692;53.114;7.060;2022-12-18T09:04:46;12.63;;;6.07;;
53781;SDS011;39692;53.114;7.060;2022-12-18T09:07:12;9.45;;;5.82;;
53781;SDS011;39692;53.114;7.060;2022-12-18T09:09:38;11.57;;;6.10;;
53781;SDS011;39692;53.114;7.060;2022-12-18T09:12:04;13.00;;;6.13;;
53781;SDS011;39692;53.114;7.060;2022-12-18T09:14:30;9.38;;;6.30;;
53781;SDS011;39692;53.114;7.060;2022-12-18T09:16:56;12.30;;;6.15;;
53781;SDS011;39692;53.114;7.060;2022-12-18T09:19:22;12.05;;;5.72;;
53781;SDS011;39692;53.114;7.060;2022-12-18T09:21:48;11.63;;;6.38;;
53781;SDS011;39692;53.114;7.060;2022-12-18T09:24:15;8.00;;;5.00;;
53781;SDS011;39692;53.114;7.060;2022-12-18T09:26:41;10.88;;;5.22;;
53781;SDS011;39692;53.114;7.060;2022-12-18T09:29:07;13.10;;;5.85;;
53781;SDS011;39692;53.114;7.060;2022-12-18T09:31:34;10.05;;;5.50;;
53781;SDS011;39692;53.114;7.060;2022-12-18T09:34:00;9.35;;;6.07;;
53781;SDS011;39692;53.114;7.060;2022-12-18T09:36:26;12.55;;;6.93;;
53781;SDS011;39692;53.114;7.060;2022-12-18T09:38:52;7.88;;;4.88;;
53781;SDS011;39692;53.114;7.060;2022-12-18T09:44:49;10.63;;;5.63;;
53781;SDS011;39692;53.114;7.060;2022-12-18T09:49:19;8.43;;;4.30;;
53781;SDS011;39692;53.114;7.060;2022-12-18T09:51:52;9.30;;;5.65;;
53781;SDS011;39692;53.114;7.060;2022-12-18T09:54:21;10.10;;;5.38;;
53781;SDS011;39692;53.114;7.060;2022-12-18T09:56:49;10.02;;;4.60;;
53781;SDS011;39692;53.114;7.060;2022-12-18T09:59:21;9.02;;;4.70;;
53781;SDS011;39692;53.114;7.060;2022-12-18T10:01:48;7.45;;;4.57;;
53781;SDS011;39692;53.114;7.060;2022-12-18T10:04:14;6.60;;;4.63;;
53781;SDS011;39692;53.114;7.060;2022-12-18T10:09:13;6.95;;;4.05;;
53781;SDS011;39692;53.114;7.060;2022-12-18T10:22:21;9.60;;;4.45;;
53781;SDS011;39692;53.114;7.060;2022-12-18T10:25:02;9.70;;;4.70;;
53781;SDS011;39692;53.114;7.060;2022-12-18T10:27:29;7.50;;;4.55;;
53781;SDS011;39692;53.114;7.060;2022-12-18T10:29:56;8.82;;;4.20;;
53781;SDS011;39692;53.114;7.060;2022-12-18T10:32:23;10.57;;;4.80;;
53781;SDS011;39692;53.114;7.060;2022-12-18T10:34:51;9.07;;;4.95;;
53781;SDS011;39692;53.114;7.060;2022-12-18T10:37:19;6.72;;;4.78;;
53781;SDS011;39692;53.114;7.060;2022-12-18T10:39:46;9.25;;;5.25;;
53781;SDS011;39692;53.114;7.060;2022-12-18T10:42:30;8.27;;;4.15;;
53781;SDS011;39692;53.114;7.060;2022-12-18T10:45:08;8.73;;;4.40;;
53781;SDS011;39692;53.114;7.060;2022-12-18T10:47:35;9.23;;;5.78;;
53781;SDS011;39692;53.114;7.060;2022-12-18T10:50:01;9.20;;;4.78;;
53781;SDS011;39692;53.114;7.060;2022-12-18T10:52:27;10.07;;;5.10;;
53781;SDS011;39692;53.114;7.060;2022-12-18T10:59:52;7.65;;;4.40;;
53781;SDS011;39692;53.114;7.060;2022-12-18T11:02:28;9.88;;;4.38;;
53781;SDS011;39692;53.114;7.060;2022-12-18T11:04:54;9.80;;;4.95;;
53781;SDS011;39692;53.114;7.060;2022-12-18T11:07:20;9.75;;;4.28;;
53781;SDS011;39692;53.114;7.060;2022-12-18T11:09:59;7.70;;;4.03;;
53781;SDS011;39692;53.114;7.060;2022-12-18T11:12:25;7.15;;;3.85;;
53781;SDS011;39692;53.114;7.060;2022-12-18T11:14:54;8.88;;;4.75;;
53781;SDS011;39692;53.114;7.060;2022-12-18T11:17:34;10.25;;;4.35;;
53781;SDS011;39692;53.114;7.060;2022-12-18T11:20:04;7.55;;;4.10;;
53781;SDS011;39692;53.114;7.060;2022-12-18T11:22:32;7.25;;;4.22;;
53781;SDS011;39692;53.114;7.060;2022-12-18T11:25:00;8.60;;;4.40;;
53781;SDS011;39692;53.114;7.060;2022-12-18T11:27:27;10.35;;;4.20;;
53781;SDS011;39692;53.114;7.060;2022-12-18T11:30:06;6.80;;;3.97;;
53781;SDS011;39692;53.114;7.060;2022-12-18T11:32:39;2.72;;;1.92;;
53781;SDS011;39692;53.114;7.060;2022-12-18T11:37:32;8.15;;;4.25;;
53781;SDS011;39692;53.114;7.060;2022-12-18T11:40:00;6.57;;;3.55;;
53781;SDS011;39692;53.114;7.060;2022-12-18T11:42:28;6.93;;;3.55;;
53781;SDS011;39692;53.114;7.060;2022-12-18T11:50:10;10.38;;;4.45;;
53781;SDS011;39692;53.114;7.060;2022-12-18T11:52:39;6.43;;;3.50;;
53781;SDS011;39692;53.114;7.060;2022-12-18T11:55:11;6.07;;;3.53;;
53781;SDS011;39692;53.114;7.060;2022-12-18T12:00:14;8.45;;;3.25;;
53781;SDS011;39692;53.114;7.060;2022-12-18T12:11:08;6.10;;;3.58;;
53781;SDS011;39692;53.114;7.060;2022-12-18T12:16:18;9.50;;;4.30;;
53781;SDS011;39692;53.114;7.060;2022-12-18T12:28:59;4.47;;;2.80;;
53781;SDS011;39692;53.114;7.060;2022-12-18T12:33:59;7.50;;;3.78;;
53781;SDS011;39692;53.114;7.060;2022-12-18T12:39:03;8.82;;;3.75;;
53781;SDS011;39692;53.114;7.060;2022-12-18T12:41:32;8.45;;;4.10;;
53781;SDS011;39692;53.114;7.060;2022-12-18T12:44:19;7.85;;;4.10;;
53781;SDS011;39692;53.114;7.060;2022-12-18T12:46:47;7.22;;;3.97;;
53781;SDS011;39692;53.114;7.060;2022-12-18T12:49:15;9.38;;;4.18;;
53781;SDS011;39692;53.114;7.060;2022-12-18T12:51:43;7.00;;;4.03;;
53781;SDS011;39692;53.114;7.060;2022-12-18T12:54:13;7.50;;;2.97;;
53781;SDS011;39692;53.114;7.060;2022-12-18T12:59:22;6.13;;;3.33;;
53781;SDS011;39692;53.114;7.060;2022-12-18T13:04:31;8.05;;;4.50;;
53781;SDS011;39692;53.114;7.060;2022-12-18T13:07:06;8.27;;;4.25;;
53781;SDS011;39692;53.114;7.060;2022-12-18T13:10:12;8.20;;;4.20;;
53781;SDS011;39692;53.114;7.060;2022-12-18T13:12:22;11.02;;;4.72;;
53781;SDS011;39692;53.114;7.060;2022-12-18T13:15:13;6.95;;;4.00;;
53781;SDS011;39692;53.114;7.060;2022-12-18T13:17:46;8.60;;;5.40;;
53781;SDS011;39692;53.114;7.060;2022-12-18T13:20:12;9.55;;;4.78;;
53781;SDS011;39692;53.114;7.060;2022-12-18T13:22:43;8.98;;;5.07;;
53781;SDS011;39692;53.114;7.060;2022-12-18T13:41:00;6.82;;;4.28;;
53781;SDS011;39692;53.114;7.060;2022-12-18T13:43:31;10.30;;;4.97;;
53781;SDS011;39692;53.114;7.060;2022-12-18T13:48:28;10.38;;;5.28;;
53781;SDS011;39692;53.114;7.060;2022-12-18T13:50:56;9.38;;;4.90;;
53781;SDS011;39692;53.114;7.060;2022-12-18T13:53:30;8.85;;;5.20;;
53781;SDS011;39692;53.114;7.060;2022-12-18T13:58:24;8.15;;;4.65;;
53781;SDS011;39692;53.114;7.060;2022-12-18T14:00:50;9.23;;;4.68;;
53781;SDS011;39692;53.114;7.060;2022-12-18T14:03:26;8.77;;;4.53;;
53781;SDS011;39692;53.114;7.060;2022-12-18T14:06:00;11.13;;;6.18;;
53781;SDS011;39692;53.114;7.060;2022-12-18T14:08:27;9.25;;;4.75;;
53781;SDS011;39692;53.114;7.060;2022-12-18T14:10:56;11.45;;;6.68;;
53781;SDS011;39692;53.114;7.060;2022-12-18T14:13:32;10.48;;;5.88;;
53781;SDS011;39692;53.114;7.060;2022-12-18T14:16:00;11.30;;;5.60;;
53781;SDS011;39692;53.114;7.060;2022-12-18T14:20:59;6.47;;;4.28;;
53781;SDS011;39692;53.114;7.060;2022-12-18T14:23:37;12.23;;;5.88;;
53781;SDS011;39692;53.114;7.060;2022-12-18T14:26:19;10.50;;;5.85;;
53781;SDS011;39692;53.114;7.060;2022-12-18T14:28:46;11.63;;;6.05;;
53781;SDS011;39692;53.114;7.060;2022-12-18T14:31:21;12.07;;;5.82;;
53781;SDS011;39692;53.114;7.060;2022-12-18T14:33:48;10.50;;;5.18;;
53781;SDS011;39692;53.114;7.060;2022-12-18T14:36:16;12.57;;;6.40;;
53781;SDS011;39692;53.114;7.060;2022-12-18T14:38:42;7.65;;;4.35;;
53781;SDS011;39692;53.114;7.060;2022-12-18T14:41:12;10.55;;;5.63;;
53781;SDS011;39692;53.114;7.060;2022-12-18T14:43:39;10.25;;;6.03;;
53781;SDS011;39692;53.114;7.060;2022-12-18T14:46:09;6.53;;;4.68;;
53781;SDS011;39692;53.114;7.060;2022-12-18T14:48:51;11.05;;;5.65;;
53781;SDS011;39692;53.114;7.060;2022-12-18T14:51:18;11.88;;;5.82;;
53781;SDS011;39692;53.114;7.060;2022-12-18T14:53:45;10.63;;;5.75;;
53781;SDS011;39692;53.114;7.060;2022-12-18T14:56:19;12.55;;;5.35;;
53781;SDS011;39692;53.114;7.060;2022-12-18T14:58:50;10.55;;;5.15;;
53781;SDS011;39692;53.114;7.060;2022-12-18T15:01:18;11.02;;;6.15;;
53781;SDS011;39692;53.114;7.060;2022-12-18T15:03:44;14.25;;;6.72;;
53781;SDS011;39692;53.114;7.060;2022-12-18T15:06:17;9.85;;;5.60;;
53781;SDS011;39692;53.114;7.060;2022-12-18T15:08:44;11.02;;;4.95;;
53781;SDS011;39692;53.114;7.060;2022-12-18T15:11:26;10.35;;;6.05;;
53781;SDS011;39692;53.114;7.060;2022-12-18T15:13:52;8.27;;;5.85;;
53781;SDS011;39692;53.114;7.060;2022-12-18T15:16:18;9.02;;;5.40;;
53781;SDS011;39692;53.114;7.060;2022-12-18T15:18:44;9.50;;;5.72;;
53781;SDS011;39692;53.114;7.060;2022-12-18T15:21:16;9.23;;;5.90;;
53781;SDS011;39692;53.114;7.060;2022-12-18T15:26:09;10.73;;;4.47;;
53781;SDS011;39692;53.114;7.060;2022-12-18T15:28:49;9.95;;;5.15;;
53781;SDS011;39692;53.114;7.060;2022-12-18T15:33:42;8.73;;;5.40;;
53781;SDS011;39692;53.114;7.060;2022-12-18T15:36:14;6.60;;;3.72;;
53781;SDS011;39692;53.114;7.060;2022-12-18T15:38:41;9.43;;;6.00;;
53781;SDS011;39692;53.114;7.060;2022-12-18T15:41:13;10.02;;;5.40;;
53781;SDS011;39692;53.114;7.060;2022-12-18T15:43:41;9.55;;;5.68;;
53781;SDS011;39692;53.114;7.060;2022-12-18T15:46:14;8.00;;;5.03;;
53781;SDS011;39692;53.114;7.060;2022-12-18T15:51:13;9.73;;;5.10;;
53781;SDS011;39692;53.114;7.060;2022-12-18T15:53:40;7.93;;;4.82;;
53781;SDS011;39692;53.114;7.060;2022-12-18T15:56:13;8.27;;;4.82;;
53781;SDS011;39692;53.114;7.060;2022-12-18T15:58:58;6.88;;;3.58;;
53781;SDS011;39692;53.114;7.060;2022-12-18T16:01:25;6.88;;;4.03;;
53781;SDS011;39692;53.114;7.060;2022-12-18T16:03:52;7.70;;;4.65;;
53781;SDS011;39692;53.114;7.060;2022-12-18T16:06:19;8.77;;;4.15;;
53781;SDS011;39692;53.114;7.060;2022-12-18T16:08:45;8.80;;;4.75;;
53781;SDS011;39692;53.114;7.060;2022-12-18T16:11:25;7.55;;;3.90;;
53781;SDS011;39692;53.114;7.060;2022-12-18T16:14:11;7.47;;;4.07;;
53781;SDS011;39692;53.114;7.060;2022-12-18T16:16:38;8.18;;;4.45;;
53781;SDS011;39692;53.114;7.060;2022-12-18T16:19:05;4.80;;;2.78;;
53781;SDS011;39692;53.114;7.060;2022-12-18T16:21:31;6.60;;;2.97;;
53781;SDS011;39692;53.114;7.060;2022-12-18T16:23:57;7.60;;;3.97;;
53781;SDS011;39692;53.114;7.060;2022-12-18T16:26:23;8.00;;;4.07;;